Terminal Aerodrome Forecast
Issued by NWS Pittsburgh, PA

Current Version | Previous Version | Text Only | Print | Product List | Glossary Off
Versions: 1 2 3 4 5 6 7 8 9 10 11 12 13 14 15 16 17 18 19 20 21 22 23 24 25 26 27 28 29 30 31 32 33

000
FTUS41 KPBZ 050237 AAA
TAFPIT
TAF AMD
KPIT 050237Z 0503/0606 29006KT P6SM BKN070
     FM050700 25005KT 3SM BR OVC030
     FM051200 24007KT 4SM -SHRA BR OVC025
     FM060000 25004KT P6SM BKN100=

USA.gov is the U.S. government's official web portal to all federal, state and local government web resources and services.